createdAt,value
2023-02-03T00:02:08.820Z,-6.71
2023-02-03T00:07:15.829Z,-6.60
2023-02-03T00:12:21.226Z,-6.51
2023-02-03T00:17:26.253Z,-6.39
2023-02-03T00:22:31.366Z,-6.27
2023-02-03T00:27:37.200Z,-6.15
2023-02-03T00:32:42.437Z,-6.04
2023-02-03T00:37:56.834Z,-5.93
2023-02-03T00:43:01.785Z,-5.82
2023-02-03T00:48:07.569Z,-5.74
2023-02-03T00:53:12.519Z,-5.62
2023-02-03T00:58:17.772Z,-5.47
2023-02-03T01:03:22.745Z,-5.30
2023-02-03T01:08:27.691Z,-5.16
2023-02-03T01:13:32.605Z,-5.01
2023-02-03T01:18:37.768Z,-4.89
2023-02-03T01:23:43.722Z,-4.70
2023-02-03T01:29:00.579Z,-4.53
2023-02-03T01:34:06.067Z,-4.37
2023-02-03T01:39:12.727Z,-4.16
2023-02-03T01:44:48.746Z,-3.94
2023-02-03T01:50:21.545Z,-3.72
2023-02-03T01:55:31.538Z,-3.53
2023-02-03T02:00:37.016Z,-3.29
2023-02-03T02:06:09.873Z,-3.12
2023-02-03T02:11:17.920Z,-3.07
2023-02-03T02:16:42.349Z,-3.01
2023-02-03T02:22:20.638Z,-2.88
2023-02-03T02:27:37.261Z,-2.67
2023-02-03T02:32:57.609Z,-2.58
2023-02-03T02:38:18.766Z,-2.42
2023-02-03T02:43:36.273Z,-2.23
2023-02-03T02:48:44.045Z,-2.00
2023-02-03T02:53:55.060Z,-1.77
2023-02-03T02:59:03.528Z,-1.55
2023-02-03T03:04:12.961Z,-1.33
2023-02-03T03:09:38.202Z,-1.07
2023-02-03T03:14:48.144Z,-0.83
2023-02-03T03:19:59.681Z,-0.76
2023-02-03T03:25:13.623Z,-0.72
2023-02-03T03:30:27.637Z,-0.70
2023-02-03T03:35:49.971Z,-0.63
2023-02-03T03:41:23.479Z,-0.46
2023-02-03T03:46:34.834Z,-0.28
2023-02-03T03:51:51.084Z,-0.11
2023-02-03T03:56:59.968Z,0.07
2023-02-03T04:02:06.789Z,0.21
2023-02-03T04:07:13.183Z,0.28
2023-02-03T04:12:27.326Z,0.47
2023-02-03T04:17:35.376Z,0.62
2023-02-03T04:22:40.808Z,0.78
2023-02-03T04:27:47.654Z,0.88
2023-02-03T04:32:52.890Z,0.95
2023-02-03T04:37:58.415Z,1.08
2023-02-03T04:43:09.268Z,1.26
2023-02-03T04:48:14.127Z,1.42
2023-02-03T04:53:19.413Z,1.44
2023-02-03T04:58:26.396Z,1.46
2023-02-03T05:03:35.035Z,1.55
2023-02-03T05:08:40.655Z,1.56
2023-02-03T05:13:47.850Z,1.67
2023-02-03T05:18:53.337Z,1.76
2023-02-03T05:23:58.869Z,1.87
2023-02-03T05:29:09.350Z,1.93
2023-02-03T05:34:15.235Z,2.02
2023-02-03T05:39:20.759Z,2.11
2023-02-03T05:44:30.274Z,2.22
2023-02-03T05:49:35.787Z,2.30
2023-02-03T05:54:41.086Z,2.40
2023-02-03T05:59:47.516Z,2.44
2023-02-03T06:04:52.563Z,2.52
2023-02-03T06:09:57.720Z,2.60
2023-02-03T06:15:03.777Z,2.70
2023-02-03T06:20:10.688Z,2.81
2023-02-03T06:25:17.803Z,2.90
2023-02-03T06:30:25.377Z,2.99
2023-02-03T06:35:31.488Z,3.12
2023-02-03T06:40:36.765Z,3.21
2023-02-03T06:45:43.260Z,3.25
2023-02-03T06:50:48.939Z,3.23
2023-02-03T06:55:54.258Z,3.20
2023-02-03T07:01:00.533Z,3.19
2023-02-03T07:06:05.938Z,3.17
2023-02-03T07:11:11.377Z,3.14
2023-02-03T07:16:17.059Z,3.12
2023-02-03T07:21:23.665Z,3.10
2023-02-03T07:26:32.263Z,3.02
2023-02-03T07:31:41.259Z,3.03
2023-02-03T07:36:46.836Z,2.96
2023-02-03T07:41:52.094Z,2.90
2023-02-03T07:52:26.497Z,2.72
2023-02-03T07:57:32.015Z,2.63
2023-02-03T08:02:37.621Z,2.55
2023-02-03T08:07:43.579Z,2.48
2023-02-03T08:12:49.437Z,2.39
2023-02-03T08:17:54.749Z,2.27
2023-02-03T08:23:00.007Z,2.19
2023-02-03T08:28:08.250Z,2.10
2023-02-03T08:33:13.827Z,1.96
2023-02-03T08:38:19.619Z,1.84
2023-02-03T08:43:25.359Z,1.72
2023-02-03T08:48:30.740Z,1.59
2023-02-03T08:53:36.206Z,1.45
2023-02-03T08:58:42.251Z,1.31
2023-02-03T09:03:47.702Z,1.19
2023-02-03T09:08:53.101Z,1.04
2023-02-03T09:13:59.322Z,0.96
2023-02-03T09:19:04.904Z,0.82
2023-02-03T09:24:10.296Z,0.70
2023-02-03T09:29:15.822Z,0.63
2023-02-03T09:34:22.609Z,0.55
2023-02-03T09:39:28.033Z,0.48
2023-02-03T09:44:34.209Z,0.31
2023-02-03T09:49:59.141Z,0.17
2023-02-03T09:55:12.291Z,-0.01
2023-02-03T10:00:41.808Z,-0.17
2023-02-03T10:06:25.241Z,-0.32
2023-02-03T10:11:42.167Z,-0.47
2023-02-03T10:16:59.585Z,-0.56
2023-02-03T10:22:08.136Z,-0.64
2023-02-03T10:27:21.100Z,-0.70
2023-02-03T10:32:28.575Z,-0.79
2023-02-03T10:37:42.303Z,-0.85
2023-02-03T10:43:08.992Z,-0.89
2023-02-03T10:48:18.228Z,-0.94
2023-02-03T10:53:25.426Z,-1.02
2023-02-03T10:58:34.586Z,-1.08
2023-02-03T11:03:43.078Z,-1.12
2023-02-03T11:08:52.019Z,-1.20
2023-02-03T11:14:18.740Z,-1.26
2023-02-03T11:19:25.043Z,-1.35
2023-02-03T11:24:34.763Z,-1.40
2023-02-03T11:29:46.782Z,-1.46
2023-02-03T11:35:16.264Z,-1.56
2023-02-03T11:40:32.381Z,-1.64
2023-02-03T11:45:44.937Z,-1.69
2023-02-03T11:51:24.824Z,-1.73
2023-02-03T11:57:07.538Z,-1.72
2023-02-03T12:02:35.230Z,-1.73
2023-02-03T12:08:10.327Z,-1.84
2023-02-03T12:13:33.614Z,-1.92
2023-02-03T12:19:02.891Z,-2.12
2023-02-03T12:24:18.612Z,-2.30
2023-02-03T12:29:47.024Z,-2.39
2023-02-03T12:35:17.709Z,-2.43
2023-02-03T12:40:53.630Z,-2.47
2023-02-03T12:46:02.689Z,-2.62
2023-02-03T12:51:14.389Z,-2.80
2023-02-03T12:56:37.864Z,-3.01
2023-02-03T13:02:01.492Z,-3.20
2023-02-03T13:07:21.668Z,-3.34
2023-02-03T13:12:41.545Z,-3.44
2023-02-03T13:17:50.767Z,-3.53
2023-02-03T13:22:57.135Z,-3.60
2023-02-03T13:28:26.830Z,-3.62
2023-02-03T13:39:14.748Z,-3.68
2023-02-03T13:44:31.323Z,-3.75
2023-02-03T13:49:40.547Z,-3.81
2023-02-03T13:54:47.016Z,-3.92
2023-02-03T13:59:52.703Z,-3.97
2023-02-03T14:05:00.859Z,-4.02
2023-02-03T14:10:26.585Z,-4.00
2023-02-03T14:15:35.058Z,-3.93
2023-02-03T14:20:45.377Z,-3.92
2023-02-03T14:25:58.012Z,-3.94
2023-02-03T14:31:13.173Z,-3.91
2023-02-03T14:36:39.515Z,-3.97
2023-02-03T14:41:50.901Z,-4.07
2023-02-03T14:46:59.526Z,-4.18
2023-02-03T14:52:17.467Z,-4.32
2023-02-03T14:57:42.357Z,-4.39
2023-02-03T15:03:13.752Z,-4.46
2023-02-03T15:08:44.834Z,-4.54
2023-02-03T15:13:50.055Z,-4.57
2023-02-03T15:19:08.966Z,-4.49
2023-02-03T15:24:27.486Z,-4.43
2023-02-03T15:29:35.271Z,-4.42
2023-02-03T15:34:51.791Z,-4.44
2023-02-03T15:40:13.312Z,-4.40
2023-02-03T15:45:34.456Z,-4.42
2023-02-03T15:51:07.569Z,-4.43
2023-02-03T15:56:32.497Z,-4.49
2023-02-03T16:01:37.619Z,-4.51
2023-02-03T16:06:46.346Z,-4.55
2023-02-03T16:11:52.474Z,-4.62
2023-02-03T16:17:05.368Z,-4.64
2023-02-03T16:22:31.947Z,-4.65
2023-02-03T16:27:37.246Z,-4.67
2023-02-03T16:33:00.644Z,-4.69
2023-02-03T16:38:39.341Z,-4.67
2023-02-03T16:44:02.017Z,-4.64
2023-02-03T16:49:25.275Z,-4.69
2023-02-03T16:54:30.473Z,-4.81
2023-02-03T16:59:36.305Z,-5.00
2023-02-03T17:04:41.268Z,-5.11
2023-02-03T17:09:46.326Z,-5.23
2023-02-03T17:14:51.326Z,-5.26
2023-02-03T17:19:58.243Z,-5.21
2023-02-03T17:25:03.513Z,-5.17
2023-02-03T17:30:08.855Z,-5.15
2023-02-03T17:35:13.944Z,-5.08
2023-02-03T17:56:32.792Z,-5.12
2023-02-03T18:01:37.608Z,-5.29
2023-02-03T18:06:42.321Z,-5.47
2023-02-03T18:11:47.627Z,-5.64
2023-02-03T18:16:52.470Z,-5.75
2023-02-03T18:21:57.337Z,-5.85
2023-02-03T18:27:03.678Z,-5.95
2023-02-03T18:32:08.456Z,-5.97
2023-02-03T18:37:14.304Z,-5.97
2023-02-03T18:42:19.186Z,-5.94
2023-02-03T18:47:24.002Z,-5.87
2023-02-03T18:52:28.917Z,-5.93
2023-02-03T18:57:33.938Z,-6.02
2023-02-03T19:02:38.550Z,-6.02
2023-02-03T19:07:43.802Z,-6.08
2023-02-03T19:12:48.463Z,-6.14
2023-02-03T19:17:54.281Z,-6.22
2023-02-03T19:22:58.990Z,-6.23
2023-02-03T19:28:04.547Z,-6.30
2023-02-03T19:33:09.289Z,-6.31
2023-02-03T19:38:13.906Z,-6.33
2023-02-03T19:43:20.520Z,-6.36
2023-02-03T19:48:24.545Z,-6.35
2023-02-03T19:53:29.433Z,-6.38
2023-02-03T19:58:34.468Z,-6.36
2023-02-03T20:03:38.716Z,-6.37
2023-02-03T20:08:44.426Z,-6.40
2023-02-03T20:13:50.488Z,-6.50
2023-02-03T20:18:55.235Z,-6.56
2023-02-03T20:24:00.169Z,-6.53
2023-02-03T20:29:05.770Z,-6.51
2023-02-03T20:34:10.872Z,-6.48
2023-02-03T20:39:21.122Z,-6.47
2023-02-03T20:44:25.861Z,-6.43
2023-02-03T20:49:30.877Z,-6.42
2023-02-03T20:54:35.717Z,-6.47
2023-02-03T20:59:40.553Z,-6.47
2023-02-03T21:05:01.481Z,-6.56
2023-02-03T21:10:21.894Z,-6.56
2023-02-03T21:15:31.495Z,-6.57
2023-02-03T21:20:36.091Z,-6.60
2023-02-03T21:25:41.330Z,-6.68
2023-02-03T21:30:46.206Z,-6.75
2023-02-03T21:35:50.880Z,-6.78
2023-02-03T21:40:55.648Z,-6.81
2023-02-03T21:46:00.564Z,-6.85
2023-02-03T21:51:17.472Z,-6.85
2023-02-03T21:56:28.425Z,-6.87
2023-02-03T22:01:39.360Z,-6.85
2023-02-03T22:06:55.201Z,-6.78
2023-02-03T22:12:01.243Z,-6.82
2023-02-03T22:17:06.090Z,-6.91
2023-02-03T22:22:10.918Z,-7.02
2023-02-03T22:27:15.667Z,-7.11
2023-02-03T22:32:20.363Z,-7.28
2023-02-03T22:37:25.209Z,-7.43
2023-02-03T22:42:30.708Z,-7.53
2023-02-03T22:47:35.424Z,-7.57
2023-02-03T22:52:40.255Z,-7.59
2023-02-03T22:57:45.048Z,-7.59
2023-02-03T23:02:50.218Z,-7.56
2023-02-03T23:07:55.556Z,-7.48
2023-02-03T23:13:04.960Z,-7.45
2023-02-03T23:18:09.756Z,-7.42
2023-02-03T23:23:15.547Z,-7.37
2023-02-03T23:28:20.370Z,-7.35
2023-02-03T23:33:25.348Z,-7.32
2023-02-03T23:38:30.166Z,-7.30
2023-02-03T23:43:34.902Z,-7.38
2023-02-03T23:48:40.757Z,-7.55
2023-02-03T23:53:45.368Z,-7.68
2023-02-03T23:58:51.168Z,-7.66
